sensor_id;sensor_type;location;lat;lon;timestamp;P1;P2;P0
59179;PMS7003;44956;52.422;20.818;2022-07-17T00:02:29;3.50;3.50;2.00
59179;PMS7003;44956;52.422;20.818;2022-07-17T00:05:32;3.00;3.00;2.00
59179;PMS7003;44956;52.422;20.818;2022-07-17T00:08:35;2.25;2.25;0.25
59179;PMS7003;44956;52.422;20.818;2022-07-17T00:11:37;3.00;3.00;2.00
59179;PMS7003;44956;52.422;20.818;2022-07-17T00:14:39;3.50;3.00;2.00
59179;PMS7003;44956;52.422;20.818;2022-07-17T00:17:42;3.25;3.25;2.00
59179;PMS7003;44956;52.422;20.818;2022-07-17T00:20:44;3.00;3.00;2.00
59179;PMS7003;44956;52.422;20.818;2022-07-17T00:23:46;1.75;1.75;1.00
59179;PMS7003;44956;52.422;20.818;2022-07-17T00:26:49;3.00;3.00;2.00
59179;PMS7003;44956;52.422;20.818;2022-07-17T00:29:53;4.00;4.00;2.00
59179;PMS7003;44956;52.422;20.818;2022-07-17T00:32:55;5.00;4.00;2.00
59179;PMS7003;44956;52.422;20.818;2022-07-17T00:35:57;4.25;3.25;2.00
59179;PMS7003;44956;52.422;20.818;2022-07-17T00:38:59;3.00;3.00;2.00
59179;PMS7003;44956;52.422;20.818;2022-07-17T00:42:02;6.00;6.00;3.25
59179;PMS7003;44956;52.422;20.818;2022-07-17T00:45:04;4.25;4.00;2.00
59179;PMS7003;44956;52.422;20.818;2022-07-17T00:48:09;7.75;5.00;3.00
59179;PMS7003;44956;52.422;20.818;2022-07-17T00:51:12;7.00;4.00;3.00
59179;PMS7003;44956;52.422;20.818;2022-07-17T00:54:15;7.00;5.00;3.00
59179;PMS7003;44956;52.422;20.818;2022-07-17T00:57:20;6.25;4.00;2.00
59179;PMS7003;44956;52.422;20.818;2022-07-17T01:00:24;4.00;4.00;3.00
59179;PMS7003;44956;52.422;20.818;2022-07-17T01:03:26;6.75;4.50;1.50
59179;PMS7003;44956;52.422;20.818;2022-07-17T01:06:28;3.00;3.00;2.00
59179;PMS7003;44956;52.422;20.818;2022-07-17T01:09:31;8.25;3.75;3.00
59179;PMS7003;44956;52.422;20.818;2022-07-17T01:12:34;3.25;3.25;2.75
59179;PMS7003;44956;52.422;20.818;2022-07-17T01:15:38;2.50;2.50;1.00
59179;PMS7003;44956;52.422;20.818;2022-07-17T01:18:42;4.75;4.75;2.75
59179;PMS7003;44956;52.422;20.818;2022-07-17T01:21:45;7.25;5.25;2.00
59179;PMS7003;44956;52.422;20.818;2022-07-17T01:24:49;6.00;4.00;2.00
59179;PMS7003;44956;52.422;20.818;2022-07-17T01:27:51;4.00;4.00;2.75
59179;PMS7003;44956;52.422;20.818;2022-07-17T01:30:53;5.50;5.50;3.50
59179;PMS7003;44956;52.422;20.818;2022-07-17T01:33:56;4.00;4.00;3.00
59179;PMS7003;44956;52.422;20.818;2022-07-17T01:36:58;5.00;5.00;2.00
59179;PMS7003;44956;52.422;20.818;2022-07-17T01:40:00;5.75;4.00;2.00
59179;PMS7003;44956;52.422;20.818;2022-07-17T01:43:03;6.00;3.00;1.00
59179;PMS7003;44956;52.422;20.818;2022-07-17T01:46:05;7.50;6.50;3.00
59179;PMS7003;44956;52.422;20.818;2022-07-17T01:49:07;6.75;6.75;3.00
59179;PMS7003;44956;52.422;20.818;2022-07-17T01:52:09;7.50;4.50;2.25
59179;PMS7003;44956;52.422;20.818;2022-07-17T01:55:13;7.00;6.00;2.50
59179;PMS7003;44956;52.422;20.818;2022-07-17T01:58:16;7.00;5.50;3.00
59179;PMS7003;44956;52.422;20.818;2022-07-17T02:01:18;10.00;7.00;3.00
59179;PMS7003;44956;52.422;20.818;2022-07-17T02:04:21;7.00;7.00;4.00
59179;PMS7003;44956;52.422;20.818;2022-07-17T02:07:23;7.50;7.50;4.00
59179;PMS7003;44956;52.422;20.818;2022-07-17T02:10:26;9.50;8.00;4.00
59179;PMS7003;44956;52.422;20.818;2022-07-17T02:13:29;10.00;8.25;4.00
59179;PMS7003;44956;52.422;20.818;2022-07-17T02:16:31;10.00;10.00;7.00
59179;PMS7003;44956;52.422;20.818;2022-07-17T02:19:34;10.00;8.75;5.00
59179;PMS7003;44956;52.422;20.818;2022-07-17T02:22:36;7.00;7.00;6.00
59179;PMS7003;44956;52.422;20.818;2022-07-17T02:25:39;7.50;7.25;3.75
59179;PMS7003;44956;52.422;20.818;2022-07-17T02:28:41;9.75;8.75;4.00
59179;PMS7003;44956;52.422;20.818;2022-07-17T02:31:45;9.00;8.00;4.00
59179;PMS7003;44956;52.422;20.818;2022-07-17T02:34:47;6.50;6.00;4.00
59179;PMS7003;44956;52.422;20.818;2022-07-17T02:37:50;13.25;10.25;6.75
59179;PMS7003;44956;52.422;20.818;2022-07-17T02:40:52;8.50;8.00;5.75
59179;PMS7003;44956;52.422;20.818;2022-07-17T02:43:54;8.75;8.25;4.00
59179;PMS7003;44956;52.422;20.818;2022-07-17T02:46:56;7.25;7.00;4.00
59179;PMS7003;44956;52.422;20.818;2022-07-17T02:49:58;8.50;7.50;4.00
59179;PMS7003;44956;52.422;20.818;2022-07-17T02:53:03;10.25;8.75;4.00
59179;PMS7003;44956;52.422;20.818;2022-07-17T02:56:05;9.25;8.00;3.75
59179;PMS7003;44956;52.422;20.818;2022-07-17T02:59:08;10.75;9.50;5.25
59179;PMS7003;44956;52.422;20.818;2022-07-17T03:02:10;9.00;7.00;4.00
59179;PMS7003;44956;52.422;20.818;2022-07-17T03:05:13;8.00;7.75;5.50
59179;PMS7003;44956;52.422;20.818;2022-07-17T03:08:16;7.50;7.50;5.25
59179;PMS7003;44956;52.422;20.818;2022-07-17T03:11:19;8.75;8.75;4.00
59179;PMS7003;44956;52.422;20.818;2022-07-17T03:14:21;9.25;8.75;5.25
59179;PMS7003;44956;52.422;20.818;2022-07-17T03:17:23;8.75;8.00;4.00
59179;PMS7003;44956;52.422;20.818;2022-07-17T03:20:27;8.75;8.75;5.25
59179;PMS7003;44956;52.422;20.818;2022-07-17T03:23:29;11.25;8.25;4.50
59179;PMS7003;44956;52.422;20.818;2022-07-17T03:26:33;9.00;9.00;5.25
59179;PMS7003;44956;52.422;20.818;2022-07-17T03:29:35;10.00;10.00;7.00
59179;PMS7003;44956;52.422;20.818;2022-07-17T03:32:37;12.25;8.00;6.00
59179;PMS7003;44956;52.422;20.818;2022-07-17T03:35:39;8.00;8.00;5.00
59179;PMS7003;44956;52.422;20.818;2022-07-17T03:38:42;9.00;9.00;5.50
59179;PMS7003;44956;52.422;20.818;2022-07-17T03:41:44;9.00;8.50;5.50
59179;PMS7003;44956;52.422;20.818;2022-07-17T03:44:47;8.75;8.75;5.00
59179;PMS7003;44956;52.422;20.818;2022-07-17T03:47:49;8.25;8.25;3.50
59179;PMS7003;44956;52.422;20.818;2022-07-17T03:50:51;11.00;7.75;5.00
59179;PMS7003;44956;52.422;20.818;2022-07-17T03:53:53;9.25;9.25;4.50
59179;PMS7003;44956;52.422;20.818;2022-07-17T03:56:55;9.00;9.00;5.00
59179;PMS7003;44956;52.422;20.818;2022-07-17T03:59:57;11.25;9.00;6.50
59179;PMS7003;44956;52.422;20.818;2022-07-17T04:03:00;11.25;11.00;7.25
59179;PMS7003;44956;52.422;20.818;2022-07-17T04:06:02;9.50;8.25;4.75
59179;PMS7003;44956;52.422;20.818;2022-07-17T04:09:05;10.25;10.25;5.00
59179;PMS7003;44956;52.422;20.818;2022-07-17T04:12:07;13.50;11.00;4.75
59179;PMS7003;44956;52.422;20.818;2022-07-17T04:15:09;8.50;8.25;6.50
59179;PMS7003;44956;52.422;20.818;2022-07-17T04:18:12;10.25;9.25;5.00
59179;PMS7003;44956;52.422;20.818;2022-07-17T04:21:14;8.50;8.00;4.75
59179;PMS7003;44956;52.422;20.818;2022-07-17T04:24:16;6.00;6.00;3.00
59179;PMS7003;44956;52.422;20.818;2022-07-17T04:27:18;7.00;7.00;5.00
59179;PMS7003;44956;52.422;20.818;2022-07-17T04:30:21;6.75;6.75;3.50
59179;PMS7003;44956;52.422;20.818;2022-07-17T04:33:23;10.25;9.25;5.75
59179;PMS7003;44956;52.422;20.818;2022-07-17T04:36:25;6.50;6.50;4.00
59179;PMS7003;44956;52.422;20.818;2022-07-17T04:39:28;8.00;7.25;5.00
59179;PMS7003;44956;52.422;20.818;2022-07-17T04:42:30;8.50;8.50;4.75
59179;PMS7003;44956;52.422;20.818;2022-07-17T04:45:33;9.50;8.75;4.50
59179;PMS7003;44956;52.422;20.818;2022-07-17T04:48:35;9.25;9.00;6.75
59179;PMS7003;44956;52.422;20.818;2022-07-17T04:51:38;8.00;8.00;5.00
59179;PMS7003;44956;52.422;20.818;2022-07-17T04:54:40;8.00;6.50;2.75
59179;PMS7003;44956;52.422;20.818;2022-07-17T04:57:43;12.25;9.00;5.00
59179;PMS7003;44956;52.422;20.818;2022-07-17T05:00:45;9.00;8.75;6.25
59179;PMS7003;44956;52.422;20.818;2022-07-17T05:03:48;7.50;7.50;4.00
59179;PMS7003;44956;52.422;20.818;2022-07-17T05:06:50;9.50;8.75;4.00
59179;PMS7003;44956;52.422;20.818;2022-07-17T05:09:52;13.25;10.00;7.50
59179;PMS7003;44956;52.422;20.818;2022-07-17T05:12:54;6.25;6.25;5.00
59179;PMS7003;44956;52.422;20.818;2022-07-17T05:15:56;8.25;8.25;5.00
59179;PMS7003;44956;52.422;20.818;2022-07-17T05:18:59;10.75;9.50;6.25
59179;PMS7003;44956;52.422;20.818;2022-07-17T05:22:02;10.50;9.75;5.00
59179;PMS7003;44956;52.422;20.818;2022-07-17T05:25:05;6.50;6.50;5.00
59179;PMS7003;44956;52.422;20.818;2022-07-17T05:28:07;9.75;9.75;5.00
59179;PMS7003;44956;52.422;20.818;2022-07-17T05:31:09;8.50;8.00;4.00
59179;PMS7003;44956;52.422;20.818;2022-07-17T05:34:12;8.75;8.25;4.75
59179;PMS7003;44956;52.422;20.818;2022-07-17T05:37:14;9.50;8.50;4.75
59179;PMS7003;44956;52.422;20.818;2022-07-17T05:40:17;10.50;9.50;6.25
59179;PMS7003;44956;52.422;20.818;2022-07-17T05:43:19;10.75;8.75;4.75
59179;PMS7003;44956;52.422;20.818;2022-07-17T05:46:21;8.25;8.25;4.00
59179;PMS7003;44956;52.422;20.818;2022-07-17T05:49:23;8.75;8.50;4.50
59179;PMS7003;44956;52.422;20.818;2022-07-17T05:52:26;8.25;8.25;4.00
59179;PMS7003;44956;52.422;20.818;2022-07-17T05:55:28;7.25;7.25;5.00
59179;PMS7003;44956;52.422;20.818;2022-07-17T05:58:31;11.00;6.50;4.50
59179;PMS7003;44956;52.422;20.818;2022-07-17T06:01:33;4.75;4.75;3.00
59179;PMS7003;44956;52.422;20.818;2022-07-17T06:04:35;10.00;6.50;4.25
59179;PMS7003;44956;52.422;20.818;2022-07-17T06:07:37;8.75;8.75;5.00
59179;PMS7003;44956;52.422;20.818;2022-07-17T06:10:40;5.00;5.00;3.25
59179;PMS7003;44956;52.422;20.818;2022-07-17T06:13:42;6.00;6.00;4.00
59179;PMS7003;44956;52.422;20.818;2022-07-17T06:16:44;6.00;6.00;4.00
59179;PMS7003;44956;52.422;20.818;2022-07-17T06:19:46;7.00;6.50;5.00
59179;PMS7003;44956;52.422;20.818;2022-07-17T06:22:49;6.50;5.75;4.00
59179;PMS7003;44956;52.422;20.818;2022-07-17T06:25:51;7.75;6.50;4.75
59179;PMS7003;44956;52.422;20.818;2022-07-17T06:28:53;7.00;7.00;5.00
59179;PMS7003;44956;52.422;20.818;2022-07-17T06:31:56;6.00;5.00;4.00
59179;PMS7003;44956;52.422;20.818;2022-07-17T06:34:58;7.00;5.75;4.00
59179;PMS7003;44956;52.422;20.818;2022-07-17T06:38:02;5.00;5.00;4.00
59179;PMS7003;44956;52.422;20.818;2022-07-17T06:41:04;5.50;5.50;3.50
59179;PMS7003;44956;52.422;20.818;2022-07-17T06:44:07;4.00;4.00;3.00
59179;PMS7003;44956;52.422;20.818;2022-07-17T06:47:09;7.00;5.00;4.00
59179;PMS7003;44956;52.422;20.818;2022-07-17T06:50:11;5.25;5.25;3.50
59179;PMS7003;44956;52.422;20.818;2022-07-17T06:53:13;4.00;4.00;3.00
59179;PMS7003;44956;52.422;20.818;2022-07-17T06:56:19;4.00;4.00;2.00
59179;PMS7003;44956;52.422;20.818;2022-07-17T06:59:21;4.00;4.00;3.00
59179;PMS7003;44956;52.422;20.818;2022-07-17T07:02:24;3.00;3.00;2.00
59179;PMS7003;44956;52.422;20.818;2022-07-17T07:05:26;3.33;3.00;2.00
59179;PMS7003;44956;52.422;20.818;2022-07-17T07:08:28;2.00;2.00;1.00
59179;PMS7003;44956;52.422;20.818;2022-07-17T07:11:31;3.00;3.00;3.00
59179;PMS7003;44956;52.422;20.818;2022-07-17T07:14:33;4.00;4.00;2.00
59179;PMS7003;44956;52.422;20.818;2022-07-17T07:17:35;3.00;3.00;2.00
59179;PMS7003;44956;52.422;20.818;2022-07-17T07:20:38;3.00;3.00;2.00
59179;PMS7003;44956;52.422;20.818;2022-07-17T07:23:40;5.00;4.00;2.00
59179;PMS7003;44956;52.422;20.818;2022-07-17T07:26:43;6.33;4.33;3.00
59179;PMS7003;44956;52.422;20.818;2022-07-17T07:29:45;4.67;3.67;2.00
59179;PMS7003;44956;52.422;20.818;2022-07-17T07:32:47;3.00;3.00;2.00
59179;PMS7003;44956;52.422;20.818;2022-07-17T07:35:50;3.00;3.00;2.00
59179;PMS7003;44956;52.422;20.818;2022-07-17T07:38:52;2.00;1.67;1.00
59179;PMS7003;44956;52.422;20.818;2022-07-17T07:41:55;4.33;4.00;2.67
59179;PMS7003;44956;52.422;20.818;2022-07-17T07:44:57;3.00;3.00;2.00
59179;PMS7003;44956;52.422;20.818;2022-07-17T07:48:00;4.67;4.00;3.00
59179;PMS7003;44956;52.422;20.818;2022-07-17T07:51:02;5.00;2.00;1.00
59179;PMS7003;44956;52.422;20.818;2022-07-17T07:54:05;3.00;3.00;1.67
59179;PMS7003;44956;52.422;20.818;2022-07-17T07:57:07;2.67;2.67;2.00
59179;PMS7003;44956;52.422;20.818;2022-07-17T08:00:10;4.67;3.00;1.00
59179;PMS7003;44956;52.422;20.818;2022-07-17T08:03:13;3.00;3.00;2.00
59179;PMS7003;44956;52.422;20.818;2022-07-17T08:06:16;2.67;2.00;1.33
59179;PMS7003;44956;52.422;20.818;2022-07-17T08:09:18;3.00;2.00;1.00
59179;PMS7003;44956;52.422;20.818;2022-07-17T08:12:21;1.33;1.00;0.00
59179;PMS7003;44956;52.422;20.818;2022-07-17T08:15:43;2.00;2.00;1.00
59179;PMS7003;44956;52.422;20.818;2022-07-17T08:18:46;1.00;1.00;1.00
59179;PMS7003;44956;52.422;20.818;2022-07-17T08:21:48;5.67;3.00;2.00
59179;PMS7003;44956;52.422;20.818;2022-07-17T08:24:51;3.00;3.00;2.00
59179;PMS7003;44956;52.422;20.818;2022-07-17T08:27:53;2.33;2.33;2.00
59179;PMS7003;44956;52.422;20.818;2022-07-17T08:30:55;5.00;3.00;2.00
59179;PMS7003;44956;52.422;20.818;2022-07-17T08:33:58;2.33;2.33;2.00
59179;PMS7003;44956;52.422;20.818;2022-07-17T08:37:00;1.67;1.67;1.00
59179;PMS7003;44956;52.422;20.818;2022-07-17T08:40:02;2.00;2.00;1.00
59179;PMS7003;44956;52.422;20.818;2022-07-17T08:43:06;1.67;1.67;0.67
59179;PMS7003;44956;52.422;20.818;2022-07-17T08:46:11;2.33;2.00;1.00
59179;PMS7003;44956;52.422;20.818;2022-07-17T08:49:15;1.33;1.33;1.00
59179;PMS7003;44956;52.422;20.818;2022-07-17T08:52:23;1.67;1.33;1.00
59179;PMS7003;44956;52.422;20.818;2022-07-17T08:55:25;0.67;0.67;0.00
59179;PMS7003;44956;52.422;20.818;2022-07-17T08:58:28;1.00;1.00;0.67
59179;PMS7003;44956;52.422;20.818;2022-07-17T09:01:30;1.00;1.00;1.00
59179;PMS7003;44956;52.422;20.818;2022-07-17T09:04:33;1.00;0.67;0.67
59179;PMS7003;44956;52.422;20.818;2022-07-17T09:07:44;0.67;0.67;0.00
59179;PMS7003;44956;52.422;20.818;2022-07-17T09:10:49;3.00;1.00;1.00
59179;PMS7003;44956;52.422;20.818;2022-07-17T09:13:55;2.00;2.00;1.00
59179;PMS7003;44956;52.422;20.818;2022-07-17T09:16:58;2.67;1.67;0.67
59179;PMS7003;44956;52.422;20.818;2022-07-17T09:20:12;0.67;0.67;0.67
59179;PMS7003;44956;52.422;20.818;2022-07-17T09:23:15;0.00;0.00;0.00
59179;PMS7003;44956;52.422;20.818;2022-07-17T09:26:18;0.67;0.67;0.00
59179;PMS7003;44956;52.422;20.818;2022-07-17T09:29:21;1.00;1.00;1.00
59179;PMS7003;44956;52.422;20.818;2022-07-17T09:32:24;0.67;0.67;0.67
59179;PMS7003;44956;52.422;20.818;2022-07-17T09:35:27;1.33;1.33;1.00
59179;PMS7003;44956;52.422;20.818;2022-07-17T09:38:37;0.00;0.00;0.00
59179;PMS7003;44956;52.422;20.818;2022-07-17T09:41:41;1.00;1.00;1.00
59179;PMS7003;44956;52.422;20.818;2022-07-17T09:44:50;0.67;0.67;0.00
59179;PMS7003;44956;52.422;20.818;2022-07-17T09:47:56;1.67;1.33;0.00
59179;PMS7003;44956;52.422;20.818;2022-07-17T09:50:59;1.67;1.67;1.00
59179;PMS7003;44956;52.422;20.818;2022-07-17T09:54:04;1.00;1.00;0.67
59179;PMS7003;44956;52.422;20.818;2022-07-17T09:57:08;1.33;1.33;0.33
59179;PMS7003;44956;52.422;20.818;2022-07-17T10:00:11;1.67;1.67;0.67
59179;PMS7003;44956;52.422;20.818;2022-07-17T10:03:24;3.00;0.67;0.67
59179;PMS7003;44956;52.422;20.818;2022-07-17T10:06:26;1.00;1.00;0.67
59179;PMS7003;44956;52.422;20.818;2022-07-17T10:09:30;0.67;0.67;0.67
59179;PMS7003;44956;52.422;20.818;2022-07-17T10:12:32;2.33;1.67;0.67
59179;PMS7003;44956;52.422;20.818;2022-07-17T10:15:35;0.00;0.00;0.00
59179;PMS7003;44956;52.422;20.818;2022-07-17T10:18:38;1.00;1.00;0.00
59179;PMS7003;44956;52.422;20.818;2022-07-17T10:21:55;0.67;0.67;0.00
59179;PMS7003;44956;52.422;20.818;2022-07-17T10:25:03;1.00;1.00;1.00
59179;PMS7003;44956;52.422;20.818;2022-07-17T10:28:06;1.00;1.00;0.33
59179;PMS7003;44956;52.422;20.818;2022-07-17T10:31:09;0.67;0.67;0.00
59179;PMS7003;44956;52.422;20.818;2022-07-17T10:34:12;0.67;0.67;0.00
59179;PMS7003;44956;52.422;20.818;2022-07-17T10:37:16;0.67;0.67;0.33
59179;PMS7003;44956;52.422;20.818;2022-07-17T10:43:24;1.67;0.33;0.33
59179;PMS7003;44956;52.422;20.818;2022-07-17T10:46:27;1.67;0.67;0.00
59179;PMS7003;44956;52.422;20.818;2022-07-17T10:49:31;1.67;1.00;0.00
59179;PMS7003;44956;52.422;20.818;2022-07-17T10:52:33;0.00;0.00;0.00
59179;PMS7003;44956;52.422;20.818;2022-07-17T10:55:37;2.33;1.67;0.67
59179;PMS7003;44956;52.422;20.818;2022-07-17T10:58:42;1.33;0.00;0.00
59179;PMS7003;44956;52.422;20.818;2022-07-17T11:01:45;2.00;1.33;1.00
59179;PMS7003;44956;52.422;20.818;2022-07-17T11:04:48;1.67;0.67;0.33
59179;PMS7003;44956;52.422;20.818;2022-07-17T11:07:51;2.00;2.00;0.67
59179;PMS7003;44956;52.422;20.818;2022-07-17T11:10:54;2.33;1.33;0.67
59179;PMS7003;44956;52.422;20.818;2022-07-17T11:14:06;0.33;0.33;0.00
59179;PMS7003;44956;52.422;20.818;2022-07-17T11:17:29;1.33;1.33;1.00
59179;PMS7003;44956;52.422;20.818;2022-07-17T11:20:32;1.00;1.00;0.00
59179;PMS7003;44956;52.422;20.818;2022-07-17T11:23:34;3.00;2.00;1.00
59179;PMS7003;44956;52.422;20.818;2022-07-17T11:26:37;1.67;1.67;0.67
59179;PMS7003;44956;52.422;20.818;2022-07-17T11:29:39;1.67;0.67;0.00
59179;PMS7003;44956;52.422;20.818;2022-07-17T11:32:42;1.00;0.67;0.00
59179;PMS7003;44956;52.422;20.818;2022-07-17T11:35:47;1.67;1.67;0.00
59179;PMS7003;44956;52.422;20.818;2022-07-17T11:38:50;1.00;1.00;0.00
59179;PMS7003;44956;52.422;20.818;2022-07-17T11:41:53;0.00;0.00;0.00
59179;PMS7003;44956;52.422;20.818;2022-07-17T11:44:55;1.00;1.00;0.00
59179;PMS7003;44956;52.422;20.818;2022-07-17T11:48:01;1.33;1.33;1.00
59179;PMS7003;44956;52.422;20.818;2022-07-17T11:51:04;0.00;0.00;0.00
59179;PMS7003;44956;52.422;20.818;2022-07-17T11:54:07;1.00;1.00;0.67
59179;PMS7003;44956;52.422;20.818;2022-07-17T11:57:15;0.67;0.67;0.00
59179;PMS7003;44956;52.422;20.818;2022-07-17T12:00:19;1.00;1.00;0.00
59179;PMS7003;44956;52.422;20.818;2022-07-17T12:03:24;0.00;0.00;0.00
59179;PMS7003;44956;52.422;20.818;2022-07-17T12:06:28;0.33;0.33;0.00
59179;PMS7003;44956;52.422;20.818;2022-07-17T12:09:32;0.67;0.67;0.33
59179;PMS7003;44956;52.422;20.818;2022-07-17T12:12:35;2.00;2.00;1.00
59179;PMS7003;44956;52.422;20.818;2022-07-17T12:15:48;0.00;0.00;0.00
59179;PMS7003;44956;52.422;20.818;2022-07-17T12:19:25;1.00;1.00;0.33
59179;PMS7003;44956;52.422;20.818;2022-07-17T12:22:21;1.00;1.00;1.00
59179;PMS7003;44956;52.422;20.818;2022-07-17T12:25:27;0.33;0.33;0.33
59179;PMS7003;44956;52.422;20.818;2022-07-17T12:28:30;0.00;0.00;0.00
59179;PMS7003;44956;52.422;20.818;2022-07-17T12:31:32;3.67;2.00;1.00
59179;PMS7003;44956;52.422;20.818;2022-07-17T12:34:36;0.67;0.67;0.33
59179;PMS7003;44956;52.422;20.818;2022-07-17T12:37:39;1.00;1.00;1.00
59179;PMS7003;44956;52.422;20.818;2022-07-17T12:40:41;0.33;0.33;0.33
59179;PMS7003;44956;52.422;20.818;2022-07-17T12:43:45;1.00;1.00;0.33
59179;PMS7003;44956;52.422;20.818;2022-07-17T12:46:47;1.00;1.00;1.00
59179;PMS7003;44956;52.422;20.818;2022-07-17T12:49:50;0.00;0.00;0.00
59179;PMS7003;44956;52.422;20.818;2022-07-17T12:52:52;1.00;1.00;1.00
59179;PMS7003;44956;52.422;20.818;2022-07-17T12:56:02;3.00;1.33;0.00
59179;PMS7003;44956;52.422;20.818;2022-07-17T12:59:05;0.00;0.00;0.00
59179;PMS7003;44956;52.422;20.818;2022-07-17T13:02:09;1.00;1.00;1.00
59179;PMS7003;44956;52.422;20.818;2022-07-17T13:05:11;1.00;1.00;0.00
59179;PMS7003;44956;52.422;20.818;2022-07-17T13:08:14;1.00;1.00;0.00
59179;PMS7003;44956;52.422;20.818;2022-07-17T13:11:17;1.00;1.00;0.00
59179;PMS7003;44956;52.422;20.818;2022-07-17T13:14:19;1.67;1.00;0.67
59179;PMS7003;44956;52.422;20.818;2022-07-17T13:17:22;1.33;1.33;1.00
59179;PMS7003;44956;52.422;20.818;2022-07-17T13:20:24;0.00;0.00;0.00
59179;PMS7003;44956;52.422;20.818;2022-07-17T13:23:27;1.00;1.00;0.33
59179;PMS7003;44956;52.422;20.818;2022-07-17T13:26:29;1.00;1.00;1.00
59179;PMS7003;44956;52.422;20.818;2022-07-17T13:29:32;1.00;1.00;0.00
59179;PMS7003;44956;52.422;20.818;2022-07-17T13:32:34;0.33;0.33;0.00
59179;PMS7003;44956;52.422;20.818;2022-07-17T13:35:38;1.00;1.00;1.00
59179;PMS7003;44956;52.422;20.818;2022-07-17T13:38:40;0.67;0.67;0.00
59179;PMS7003;44956;52.422;20.818;2022-07-17T13:41:43;0.33;0.33;0.33
59179;PMS7003;44956;52.422;20.818;2022-07-17T13:44:46;0.33;0.33;0.33
59179;PMS7003;44956;52.422;20.818;2022-07-17T13:47:48;0.00;0.00;0.00
59179;PMS7003;44956;52.422;20.818;2022-07-17T13:50:51;0.67;0.67;0.00
59179;PMS7003;44956;52.422;20.818;2022-07-17T13:53:53;1.00;1.00;0.00
59179;PMS7003;44956;52.422;20.818;2022-07-17T13:56:56;0.67;0.67;0.00
59179;PMS7003;44956;52.422;20.818;2022-07-17T13:59:59;1.00;1.00;0.00
59179;PMS7003;44956;52.422;20.818;2022-07-17T14:03:10;1.00;1.00;0.00
59179;PMS7003;44956;52.422;20.818;2022-07-17T14:06:12;1.00;1.00;1.00
59179;PMS7003;44956;52.422;20.818;2022-07-17T14:09:16;1.00;1.00;1.00
59179;PMS7003;44956;52.422;20.818;2022-07-17T14:12:19;2.00;2.00;1.33
59179;PMS7003;44956;52.422;20.818;2022-07-17T14:15:22;2.00;2.00;1.67
59179;PMS7003;44956;52.422;20.818;2022-07-17T14:18:24;2.00;2.00;1.00
59179;PMS7003;44956;52.422;20.818;2022-07-17T14:21:33;1.67;1.67;1.00
59179;PMS7003;44956;52.422;20.818;2022-07-17T14:24:37;3.67;2.00;1.00
59179;PMS7003;44956;52.422;20.818;2022-07-17T14:27:40;3.00;3.00;1.33
59179;PMS7003;44956;52.422;20.818;2022-07-17T14:30:42;2.00;2.00;1.00
59179;PMS7003;44956;52.422;20.818;2022-07-17T14:33:45;1.67;1.67;0.67
59179;PMS7003;44956;52.422;20.818;2022-07-17T14:36:50;0.67;0.67;0.67
59179;PMS7003;44956;52.422;20.818;2022-07-17T14:39:53;1.67;1.67;1.33
59179;PMS7003;44956;52.422;20.818;2022-07-17T14:42:56;1.33;1.33;0.33
59179;PMS7003;44956;52.422;20.818;2022-07-17T14:45:59;2.33;2.33;0.67
59179;PMS7003;44956;52.422;20.818;2022-07-17T14:49:01;2.00;2.00;1.00
59179;PMS7003;44956;52.422;20.818;2022-07-17T14:52:04;2.00;2.00;1.00
59179;PMS7003;44956;52.422;20.818;2022-07-17T14:55:06;1.33;1.33;0.67
59179;PMS7003;44956;52.422;20.818;2022-07-17T14:58:10;2.00;2.00;1.00
59179;PMS7003;44956;52.422;20.818;2022-07-17T15:01:12;1.67;1.33;0.67
59179;PMS7003;44956;52.422;20.818;2022-07-17T15:04:15;1.67;1.67;0.67
59179;PMS7003;44956;52.422;20.818;2022-07-17T15:07:18;0.67;0.67;0.67
59179;PMS7003;44956;52.422;20.818;2022-07-17T15:10:20;2.67;1.00;0.33
59179;PMS7003;44956;52.422;20.818;2022-07-17T15:13:22;1.67;1.67;0.67
59179;PMS7003;44956;52.422;20.818;2022-07-17T15:16:25;2.00;0.67;0.67
59179;PMS7003;44956;52.422;20.818;2022-07-17T15:19:29;1.67;1.67;0.67
59179;PMS7003;44956;52.422;20.818;2022-07-17T15:22:31;1.33;1.33;0.67
59179;PMS7003;44956;52.422;20.818;2022-07-17T15:25:34;1.67;1.00;0.67
59179;PMS7003;44956;52.422;20.818;2022-07-17T15:28:36;1.67;0.67;0.00
59179;PMS7003;44956;52.422;20.818;2022-07-17T15:31:39;0.67;0.67;0.00
59179;PMS7003;44956;52.422;20.818;2022-07-17T15:34:41;0.33;0.33;0.00
59179;PMS7003;44956;52.422;20.818;2022-07-17T15:37:43;1.67;0.67;0.67
59179;PMS7003;44956;52.422;20.818;2022-07-17T15:40:46;1.67;1.67;1.00
59179;PMS7003;44956;52.422;20.818;2022-07-17T15:43:48;0.67;0.67;0.33
59179;PMS7003;44956;52.422;20.818;2022-07-17T15:46:51;0.67;0.67;0.67
59179;PMS7003;44956;52.422;20.818;2022-07-17T15:49:53;2.00;2.00;1.00
59179;PMS7003;44956;52.422;20.818;2022-07-17T15:52:56;3.00;2.00;1.00
59179;PMS7003;44956;52.422;20.818;2022-07-17T15:55:58;2.00;1.00;0.00
59179;PMS7003;44956;52.422;20.818;2022-07-17T15:59:01;4.00;4.00;2.00
59179;PMS7003;44956;52.422;20.818;2022-07-17T16:02:04;3.00;2.00;1.00
59179;PMS7003;44956;52.422;20.818;2022-07-17T16:05:06;1.00;1.00;1.00
59179;PMS7003;44956;52.422;20.818;2022-07-17T16:08:09;2.00;2.00;1.00
59179;PMS7003;44956;52.422;20.818;2022-07-17T16:11:11;1.00;1.00;1.00
59179;PMS7003;44956;52.422;20.818;2022-07-17T16:14:14;1.00;1.00;0.67
59179;PMS7003;44956;52.422;20.818;2022-07-17T16:17:16;0.67;0.67;0.67
59179;PMS7003;44956;52.422;20.818;2022-07-17T16:20:19;2.67;1.67;0.67
59179;PMS7003;44956;52.422;20.818;2022-07-17T16:23:21;1.67;0.67;0.33
59179;PMS7003;44956;52.422;20.818;2022-07-17T16:26:25;1.00;1.00;1.00
59179;PMS7003;44956;52.422;20.818;2022-07-17T16:29:27;2.00;2.00;1.00
59179;PMS7003;44956;52.422;20.818;2022-07-17T16:32:30;2.67;1.67;0.67
59179;PMS7003;44956;52.422;20.818;2022-07-17T16:35:33;1.67;1.67;1.33
59179;PMS7003;44956;52.422;20.818;2022-07-17T16:38:38;2.00;1.33;1.00
59179;PMS7003;44956;52.422;20.818;2022-07-17T16:41:41;2.67;2.67;1.33
59179;PMS7003;44956;52.422;20.818;2022-07-17T16:44:43;2.00;2.00;1.67
59179;PMS7003;44956;52.422;20.818;2022-07-17T16:47:46;5.67;4.33;2.00
59179;PMS7003;44956;52.422;20.818;2022-07-17T16:50:48;1.67;1.67;1.00
59179;PMS7003;44956;52.422;20.818;2022-07-17T16:53:50;3.00;2.00;1.00
59179;PMS7003;44956;52.422;20.818;2022-07-17T16:56:53;1.00;1.00;1.00
59179;PMS7003;44956;52.422;20.818;2022-07-17T16:59:55;2.00;2.00;1.00
59179;PMS7003;44956;52.422;20.818;2022-07-17T17:02:58;3.67;3.00;1.00
59179;PMS7003;44956;52.422;20.818;2022-07-17T17:06:03;1.33;1.33;1.00
59179;PMS7003;44956;52.422;20.818;2022-07-17T17:09:05;1.00;1.00;0.00
59179;PMS7003;44956;52.422;20.818;2022-07-17T17:12:08;2.00;2.00;1.00
59179;PMS7003;44956;52.422;20.818;2022-07-17T17:15:10;3.00;3.00;1.00
59179;PMS7003;44956;52.422;20.818;2022-07-17T17:18:12;1.00;1.00;1.00
59179;PMS7003;44956;52.422;20.818;2022-07-17T17:21:14;2.00;2.00;1.00
59179;PMS7003;44956;52.422;20.818;2022-07-17T17:24:17;2.00;2.00;1.00
59179;PMS7003;44956;52.422;20.818;2022-07-17T17:27:19;2.67;2.00;1.00
59179;PMS7003;44956;52.422;20.818;2022-07-17T17:30:22;2.67;1.33;1.00
59179;PMS7003;44956;52.422;20.818;2022-07-17T17:33:24;2.00;2.00;1.33
59179;PMS7003;44956;52.422;20.818;2022-07-17T17:36:27;4.33;2.00;1.00
59179;PMS7003;44956;52.422;20.818;2022-07-17T17:39:35;1.67;1.67;1.00